createdAt,value
2022-09-16T05:14:04.712Z,21.80
2022-09-16T05:16:33.204Z,21.90
2022-09-16T05:19:02.110Z,21.90
2022-09-16T05:21:29.152Z,21.90
2022-09-16T05:24:00.893Z,21.80
2022-09-16T05:26:30.044Z,21.90
2022-09-16T05:28:59.875Z,21.80
2022-09-16T05:31:29.513Z,21.80
2022-09-16T05:34:00.422Z,21.80
2022-09-16T05:36:29.424Z,21.80
2022-09-16T05:39:21.189Z,21.80
2022-09-16T05:41:44.696Z,21.80
2022-09-16T05:44:11.739Z,21.80
2022-09-16T05:46:41.166Z,21.80
2022-09-16T05:49:09.029Z,21.80
2022-09-16T05:51:38.261Z,21.80
2022-09-16T05:54:05.712Z,21.80
2022-09-16T05:56:32.724Z,21.80
2022-09-16T05:59:00.919Z,21.80
2022-09-16T06:01:31.454Z,21.80
2022-09-16T06:04:02.002Z,21.80
2022-09-16T06:06:31.999Z,21.70
2022-09-16T06:09:01.197Z,21.70
2022-09-16T06:11:28.980Z,21.70
2022-09-16T06:13:58.412Z,21.70
2022-09-16T06:16:26.931Z,21.70
2022-09-16T06:18:55.610Z,21.70
2022-09-16T06:21:23.267Z,21.80
2022-09-16T06:23:50.463Z,21.80
2022-09-16T06:26:21.246Z,21.80
2022-09-16T06:28:49.001Z,21.80
2022-09-16T06:31:22.557Z,21.80
2022-09-16T06:33:50.773Z,21.90
2022-09-16T06:36:29.041Z,21.90
2022-09-16T06:38:56.589Z,21.90
2022-09-16T06:41:24.899Z,22.00
2022-09-16T06:43:52.416Z,22.00
2022-09-16T06:46:22.800Z,22.00
2022-09-16T06:48:52.408Z,22.10
2022-09-16T06:51:25.169Z,22.10
2022-09-16T06:53:53.761Z,22.10
2022-09-16T06:56:22.001Z,22.10
2022-09-16T06:58:53.200Z,22.20
2022-09-16T07:01:28.544Z,22.20
2022-09-16T07:03:57.620Z,22.20
2022-09-16T07:06:49.597Z,22.30
2022-09-16T07:09:15.157Z,22.20
2022-09-16T07:11:42.134Z,22.30
2022-09-16T07:14:09.885Z,22.30
2022-09-16T07:16:37.219Z,22.40
2022-09-16T07:19:04.668Z,22.30
2022-09-16T07:21:31.917Z,22.30
2022-09-16T07:24:00.557Z,22.30
2022-09-16T07:26:29.751Z,22.30
2022-09-16T07:29:00.226Z,22.30
2022-09-16T07:31:29.316Z,22.30
2022-09-16T07:34:03.490Z,22.30
2022-09-16T07:36:50.146Z,22.30
2022-09-16T07:39:18.937Z,22.20
2022-09-16T07:41:46.772Z,22.20
2022-09-16T07:44:16.426Z,22.20
2022-09-16T07:46:43.972Z,22.20
2022-09-16T07:49:14.133Z,22.20
2022-09-16T07:51:41.598Z,22.20
2022-09-16T07:54:11.182Z,22.20
2022-09-16T07:56:39.929Z,22.20
2022-09-16T07:59:13.051Z,22.20
2022-09-16T08:01:43.736Z,22.10
2022-09-16T08:04:12.363Z,22.10
2022-09-16T08:06:39.997Z,22.10
2022-09-16T08:09:15.647Z,22.10
2022-09-16T08:11:53.814Z,22.10
2022-09-16T08:14:20.886Z,22.10
2022-09-16T08:16:51.522Z,22.10
2022-09-16T08:19:19.652Z,22.00
2022-09-16T08:21:46.738Z,22.10
2022-09-16T08:24:13.627Z,22.00
2022-09-16T08:26:40.577Z,22.10
2022-09-16T08:29:09.425Z,22.00
2022-09-16T08:31:37.955Z,22.00
2022-09-16T08:34:05.642Z,22.00
2022-09-16T08:36:35.275Z,22.00
2022-09-16T08:39:02.442Z,22.00
2022-09-16T08:42:00.428Z,22.00
2022-09-16T08:44:39.387Z,22.00
2022-09-16T08:47:11.533Z,22.00
2022-09-16T08:49:46.283Z,21.90
2022-09-16T08:52:32.996Z,21.90
2022-09-16T08:55:07.143Z,21.90
2022-09-16T08:57:40.250Z,21.90
2022-09-16T09:00:16.186Z,21.90
2022-09-16T09:03:01.719Z,21.90
2022-09-16T09:05:31.834Z,21.90
2022-09-16T09:08:26.967Z,21.90
2022-09-16T09:11:17.917Z,21.90
2022-09-16T09:13:51.628Z,21.90
2022-09-16T09:16:30.438Z,21.80
2022-09-16T09:19:03.615Z,21.90
2022-09-16T09:21:33.397Z,21.80
2022-09-16T09:24:07.499Z,21.90
2022-09-16T09:26:48.588Z,21.90
2022-09-16T09:29:40.119Z,21.80
2022-09-16T09:32:38.325Z,21.80
2022-09-16T09:35:33.001Z,21.80
2022-09-16T09:38:30.601Z,21.80
2022-09-16T09:41:04.510Z,21.80
2022-09-16T09:43:37.673Z,21.80
2022-09-16T09:46:23.605Z,21.80
2022-09-16T09:49:21.840Z,21.80
2022-09-16T09:51:55.096Z,21.80
2022-09-16T09:54:29.960Z,21.80
2022-09-16T09:57:08.900Z,21.80
2022-09-16T10:00:01.316Z,21.80
2022-09-16T10:02:28.591Z,21.80
2022-09-16T10:04:55.612Z,21.80
2022-09-16T10:07:24.839Z,21.80
2022-09-16T10:10:17.402Z,21.80
2022-09-16T10:12:44.895Z,21.80
2022-09-16T10:15:29.310Z,21.80
2022-09-16T10:17:59.577Z,21.80
2022-09-16T10:20:37.200Z,21.80
2022-09-16T10:23:17.112Z,21.80
2022-09-16T10:25:44.283Z,21.80
2022-09-16T10:28:26.154Z,21.80
2022-09-16T10:30:58.721Z,21.80
2022-09-16T10:33:36.410Z,21.80
2022-09-16T10:36:08.307Z,21.80
2022-09-16T10:38:42.096Z,21.80
2022-09-16T10:41:16.513Z,21.80
2022-09-16T10:43:51.918Z,21.80
2022-09-16T10:46:20.095Z,21.80
2022-09-16T10:48:49.355Z,21.80
2022-09-16T10:51:23.731Z,21.80
2022-09-16T10:53:58.991Z,21.80
2022-09-16T10:56:32.195Z,21.80
2022-09-16T10:59:13.390Z,21.80
2022-09-16T11:01:58.244Z,21.80
2022-09-16T11:05:06.933Z,21.80
2022-09-16T11:07:50.689Z,21.80
2022-09-16T11:10:23.669Z,21.80
2022-09-16T11:13:15.611Z,21.80
2022-09-16T11:16:01.312Z,21.80
2022-09-16T11:18:52.388Z,21.80
2022-09-16T11:22:14.235Z,21.80
2022-09-16T11:25:08.172Z,21.80
2022-09-16T11:27:41.392Z,21.80
2022-09-16T11:30:18.356Z,21.80
2022-09-16T11:33:06.664Z,21.80
2022-09-16T11:35:57.961Z,21.80
2022-09-16T11:38:43.741Z,21.80
2022-09-16T11:41:30.981Z,21.80
2022-09-16T11:44:13.027Z,21.80
2022-09-16T11:46:58.418Z,21.80
2022-09-16T11:49:54.195Z,21.80
2022-09-16T11:52:42.071Z,21.80
2022-09-16T11:55:29.895Z,21.80
2022-09-16T11:58:09.434Z,21.80
2022-09-16T12:00:39.922Z,21.80
2022-09-16T12:03:23.219Z,21.80
2022-09-16T12:05:55.297Z,21.80
2022-09-16T12:08:34.141Z,21.80
2022-09-16T12:11:03.781Z,21.80
2022-09-16T12:13:38.531Z,21.80
2022-09-16T12:16:15.094Z,21.80
2022-09-16T12:18:45.650Z,21.80
2022-09-16T12:21:25.681Z,21.80
2022-09-16T12:23:59.394Z,21.80
2022-09-16T12:26:32.362Z,21.80
2022-09-16T12:29:19.947Z,21.70
2022-09-16T12:31:57.084Z,21.80
2022-09-16T12:34:37.060Z,21.70
2022-09-16T12:37:51.366Z,21.80
2022-09-16T12:40:24.639Z,21.70
2022-09-16T13:01:40.908Z,21.70
2022-09-16T13:04:21.428Z,21.70
2022-09-16T13:06:56.321Z,21.70
2022-09-16T13:09:33.556Z,21.70
2022-09-16T13:12:36.403Z,21.70
2022-09-16T13:15:00.086Z,21.80
2022-09-16T13:17:39.003Z,21.70
2022-09-16T13:20:23.231Z,21.70
2022-09-16T13:23:18.468Z,21.70
2022-09-16T13:25:51.708Z,21.70
2022-09-16T13:28:26.464Z,21.70
2022-09-16T13:31:14.444Z,21.70
2022-09-16T13:33:58.175Z,21.70
2022-09-16T13:36:25.741Z,21.70
2022-09-16T13:39:00.756Z,21.70
2022-09-16T13:41:39.675Z,21.70
2022-09-16T13:44:30.538Z,21.70
2022-09-16T13:47:32.094Z,21.70
2022-09-16T13:50:18.354Z,21.60
2022-09-16T13:52:45.648Z,21.60
2022-09-16T13:55:25.662Z,21.60
2022-09-16T13:57:55.443Z,21.60
2022-09-16T14:00:26.456Z,21.60
2022-09-16T14:03:24.576Z,21.60
2022-09-16T14:06:16.791Z,21.60
2022-09-16T14:08:59.048Z,21.60
2022-09-16T14:12:04.091Z,21.60
2022-09-16T14:14:46.768Z,21.60
2022-09-16T14:17:22.416Z,21.60
2022-09-16T14:19:52.779Z,21.60
2022-09-16T14:22:23.191Z,21.60
2022-09-16T14:25:00.535Z,21.60
2022-09-16T14:27:36.816Z,21.60
2022-09-16T14:30:17.245Z,21.60
2022-09-16T14:32:46.209Z,21.60
2022-09-16T14:35:21.525Z,21.60
2022-09-16T14:37:54.108Z,21.60
2022-09-16T14:40:25.714Z,21.60
2022-09-16T14:43:00.087Z,21.60
2022-09-16T14:45:29.237Z,21.60
2022-09-16T14:47:59.624Z,21.60
2022-09-16T14:50:30.500Z,21.60
2022-09-16T14:53:03.121Z,21.60
2022-09-16T14:55:34.965Z,21.60
2022-09-16T14:58:03.408Z,21.60
2022-09-16T15:00:43.306Z,21.60
2022-09-16T15:03:35.671Z,21.60
2022-09-16T15:06:08.176Z,21.60
2022-09-16T15:08:55.868Z,21.60
2022-09-16T15:11:47.926Z,21.60
2022-09-16T15:14:15.936Z,21.60
2022-09-16T15:16:49.863Z,21.60
2022-09-16T15:19:26.440Z,21.60
2022-09-16T15:21:54.082Z,21.60
2022-09-16T15:24:25.087Z,21.60
2022-09-16T15:26:54.019Z,21.60
2022-09-16T15:29:23.834Z,21.60
2022-09-16T15:31:51.399Z,21.60
2022-09-16T15:34:21.117Z,21.60
2022-09-16T15:36:56.511Z,21.60
2022-09-16T15:39:30.841Z,21.60
2022-09-16T15:42:10.500Z,21.60
2022-09-16T15:44:44.294Z,21.60
2022-09-16T15:47:26.434Z,21.60
2022-09-16T15:50:09.798Z,21.60
2022-09-16T15:53:10.580Z,21.60
2022-09-16T15:55:52.083Z,21.60
2022-09-16T15:58:22.427Z,21.60
2022-09-16T16:01:06.977Z,21.70
2022-09-16T16:03:52.006Z,21.70
2022-09-16T16:06:19.805Z,21.70
2022-09-16T16:08:49.602Z,21.70
2022-09-16T16:11:19.007Z,21.70
2022-09-16T16:13:47.267Z,21.70
2022-09-16T16:16:16.564Z,21.70
2022-09-16T16:18:45.845Z,21.70
2022-09-16T16:21:15.999Z,21.70
2022-09-16T16:23:44.131Z,21.70
2022-09-16T16:26:12.367Z,21.60
2022-09-16T16:28:39.588Z,21.70
2022-09-16T16:31:18.417Z,21.60
2022-09-16T16:33:47.756Z,21.70
2022-09-16T16:36:16.399Z,21.60
2022-09-16T16:38:44.482Z,21.60
2022-09-16T16:41:12.483Z,21.60
2022-09-16T16:43:40.604Z,21.60
2022-09-16T16:46:07.672Z,21.60
2022-09-16T16:48:35.774Z,21.60
2022-09-16T16:51:06.783Z,21.70
2022-09-16T16:53:34.438Z,21.70
2022-09-16T16:56:15.536Z,21.60
2022-09-16T16:58:45.720Z,21.60
2022-09-16T17:01:18.331Z,21.70
2022-09-16T17:03:47.818Z,21.60
2022-09-16T17:06:14.991Z,21.60
2022-09-16T17:08:42.401Z,21.60
2022-09-16T17:11:14.442Z,21.60
2022-09-16T17:13:45.582Z,21.60
2022-09-16T17:16:14.520Z,21.60
2022-09-16T17:18:42.305Z,21.60
2022-09-16T17:21:13.472Z,21.60
2022-09-16T17:23:40.914Z,21.60
2022-09-16T17:26:12.152Z,21.60
2022-09-16T17:28:40.710Z,21.60
2022-09-16T17:31:12.507Z,21.60
2022-09-16T17:33:39.464Z,21.60
2022-09-16T17:36:07.986Z,21.60
2022-09-16T17:38:35.509Z,21.60
2022-09-16T17:41:11.744Z,21.60
2022-09-16T17:43:40.217Z,21.60
2022-09-16T17:46:12.031Z,21.60
2022-09-16T17:48:39.171Z,21.60
2022-09-16T17:51:06.712Z,21.60
2022-09-16T17:53:34.855Z,21.60
2022-09-16T17:56:13.239Z,21.60
2022-09-16T17:58:43.484Z,21.60
2022-09-16T18:01:13.401Z,21.60
2022-09-16T18:03:43.278Z,21.60
2022-09-16T18:06:14.467Z,21.60
2022-09-16T18:08:41.897Z,21.50
2022-09-16T18:11:11.607Z,21.60
2022-09-16T18:13:39.355Z,21.50
2022-09-16T18:16:11.446Z,21.60
2022-09-16T18:18:40.526Z,21.60
2022-09-16T18:21:11.293Z,21.60
2022-09-16T18:23:38.440Z,21.60
2022-09-16T18:26:07.392Z,21.50
2022-09-16T18:29:05.253Z,21.50
2022-09-16T18:31:26.716Z,21.50
2022-09-16T18:33:54.937Z,21.50
2022-09-16T18:36:26.150Z,21.50
2022-09-16T18:38:57.543Z,21.50
2022-09-16T18:41:31.100Z,21.50
2022-09-16T18:44:00.641Z,21.50
2022-09-16T18:46:30.467Z,21.60
2022-09-16T18:48:58.001Z,21.60
2022-09-16T18:51:27.910Z,21.60
2022-09-16T18:54:03.133Z,21.70
2022-09-16T18:56:32.203Z,21.70
2022-09-16T19:01:55.747Z,21.80
2022-09-16T19:04:26.037Z,21.80
2022-09-16T19:06:55.662Z,21.80
2022-09-16T19:09:24.282Z,21.90
2022-09-16T19:11:55.386Z,21.90
2022-09-16T19:14:24.964Z,21.90
2022-09-16T19:16:52.839Z,21.90
2022-09-16T19:19:20.793Z,22.00
2022-09-16T19:21:48.249Z,22.00
2022-09-16T19:24:21.573Z,22.00
2022-09-16T19:26:50.512Z,22.00
2022-09-16T19:29:18.359Z,22.00
2022-09-16T19:31:47.751Z,22.00
2022-09-16T19:34:16.160Z,22.00
2022-09-16T19:36:43.798Z,22.10
2022-09-16T19:39:12.382Z,22.10
2022-09-16T19:41:41.023Z,22.10
2022-09-16T19:44:12.399Z,22.10
2022-09-16T19:46:40.638Z,22.10
2022-09-16T19:49:08.817Z,22.10
2022-09-16T19:51:36.245Z,22.10
2022-09-16T19:54:03.574Z,22.10
2022-09-16T19:56:33.052Z,22.10
2022-09-16T19:59:01.690Z,22.10
2022-09-16T20:01:32.293Z,22.10
2022-09-16T20:04:00.023Z,22.10
2022-09-16T20:06:31.105Z,22.10
2022-09-16T20:09:01.970Z,22.20
2022-09-16T20:11:32.061Z,22.20
2022-09-16T20:14:05.633Z,22.20
2022-09-16T20:16:37.544Z,22.20
2022-09-16T20:19:06.971Z,22.20
2022-09-16T20:21:35.427Z,22.10
2022-09-16T20:24:08.214Z,22.10
2022-09-16T20:26:36.376Z,22.20
2022-09-16T20:29:04.184Z,22.20
2022-09-16T20:31:37.076Z,22.20
2022-09-16T20:34:05.302Z,22.20
2022-09-16T20:36:36.494Z,22.10
2022-09-16T20:39:04.839Z,22.20
2022-09-16T20:41:33.993Z,22.20
2022-09-16T20:44:01.611Z,22.20
2022-09-16T20:46:31.786Z,22.30
2022-09-16T20:49:00.944Z,22.20
2022-09-16T20:51:34.213Z,22.20
2022-09-16T20:54:08.079Z,22.10
2022-09-16T20:56:39.187Z,22.10
2022-09-16T20:59:08.375Z,22.20
2022-09-16T21:01:36.265Z,22.10
2022-09-16T21:04:08.518Z,22.10
2022-09-16T21:06:36.612Z,22.10
2022-09-16T21:09:07.112Z,22.00
2022-09-16T21:11:35.147Z,22.00
2022-09-16T21:14:06.712Z,22.00
2022-09-16T21:16:37.109Z,22.00
2022-09-16T21:19:06.810Z,22.00
2022-09-16T21:21:33.848Z,21.90
2022-09-16T21:24:01.566Z,21.90
2022-09-16T21:26:31.240Z,21.90
2022-09-16T21:29:08.734Z,21.90
2022-09-16T21:31:38.206Z,21.90
2022-09-16T21:34:06.884Z,21.90
2022-09-16T21:36:35.618Z,21.80
2022-09-16T21:39:02.768Z,21.80
2022-09-16T21:41:30.375Z,21.80
2022-09-16T21:43:58.002Z,21.80
2022-09-16T21:46:28.107Z,21.80
2022-09-16T21:49:01.367Z,21.70
2022-09-16T21:51:35.530Z,21.70
2022-09-16T21:54:07.742Z,21.70
2022-09-16T21:56:38.297Z,21.70
2022-09-16T21:59:06.229Z,21.70
2022-09-16T22:01:33.926Z,21.70
2022-09-16T22:04:07.316Z,21.70
2022-09-16T22:06:34.625Z,21.70
2022-09-16T22:09:03.851Z,21.70
2022-09-16T22:11:33.065Z,21.60
2022-09-16T22:14:01.259Z,21.60
2022-09-16T22:16:33.730Z,21.60
2022-09-16T22:19:07.647Z,21.60
2022-09-16T22:21:36.961Z,21.60
2022-09-16T22:24:04.841Z,21.60
2022-09-16T22:26:32.443Z,21.60
2022-09-16T22:29:00.927Z,21.60
2022-09-16T22:31:30.879Z,21.60
2022-09-16T22:34:00.508Z,21.60
2022-09-16T22:36:30.122Z,21.60
2022-09-16T22:39:01.115Z,21.60
2022-09-16T22:41:29.267Z,21.50
2022-09-16T22:43:56.663Z,21.50
2022-09-16T22:46:30.603Z,21.50
2022-09-16T22:48:59.209Z,21.50
2022-09-16T22:51:28.241Z,21.50
2022-09-16T22:53:55.851Z,21.50
2022-09-16T22:56:25.289Z,21.50
2022-09-16T22:58:54.122Z,21.50
2022-09-16T23:01:25.111Z,21.50
2022-09-16T23:03:57.232Z,21.50
2022-09-16T23:06:25.885Z,21.50
2022-09-16T23:08:53.330Z,21.50
2022-09-16T23:11:24.303Z,21.50
2022-09-16T23:13:53.011Z,21.40
2022-09-16T23:16:27.257Z,21.40
2022-09-16T23:18:57.151Z,21.40
2022-09-16T23:21:24.825Z,21.40
2022-09-16T23:23:54.702Z,21.40
2022-09-16T23:26:25.403Z,21.40
2022-09-16T23:28:54.072Z,21.40
2022-09-16T23:31:23.813Z,21.40
2022-09-16T23:33:51.050Z,21.40
2022-09-16T23:36:19.081Z,21.40
2022-09-16T23:38:46.394Z,21.40
2022-09-16T23:41:19.901Z,21.40
2022-09-16T23:43:48.453Z,21.40
2022-09-16T23:46:17.418Z,21.40
2022-09-16T23:48:45.027Z,21.40
2022-09-16T23:51:13.200Z,21.40
2022-09-16T23:53:42.549Z,21.40
2022-09-16T23:56:12.149Z,21.40
2022-09-16T23:58:40.029Z,21.40
